Vermont, Illinois
Current Conditions -  °F | °C
As of 9:35 PM on Friday 24 Oct 2014 (Local Time) from KMQB Reporting Station
Overcast Overcast  
Wind Chill: 56°   Ceiling: 3700
Heat Index: 56°   Visibility: 10mi
Dew Point: 52°   Wind: 5mph
Humidity: 85%   Direction: 10°N
Pressure: 29.99"   Gusts: NA
Location:  40.29°N, 90.43°W
Report Text: KMQB 250235Z AUTO 01004KT 10SM BKN037 OVC046 14/11 A2999 RMK AO2 T01360111
Loading
Personal Weather Stations






























Interactive Weather Map
Tropical Storm Tracking
New forecast layout! Learn more

10-Day Weather Forecast

Advertisements
Track Severe Weather on mobile